Time;durP1;ratioP1;P1;durP2;ratioP2;P2;SDS_P1;SDS_P2;PMS_P1;PMS_P2;Temp;Humidity;BMP_temperature;BMP_pressure;BME280_temperature;BME280_humidity;BME280_pressure;Samples;Min_cycle;Max_cycle;Signal;HPM_P1;HPM_P2
2024/03/10 00:01:59;;;;;;;141.10;131.52;;;7.80;99.90;;;;;;5040920;28;20482;-85
2024/03/10 00:04:25;;;;;;;145.18;135.85;;;7.70;99.90;;;;;;5032693;28;20037;-84
2024/03/10 00:06:52;;;;;;;151.13;141.02;;;7.60;99.90;;;;;;5045493;28;20040;-84
2024/03/10 00:09:18;;;;;;;142.20;132.95;;;7.60;99.90;;;;;;5051605;28;20032;-84
2024/03/10 00:11:44;;;;;;;147.82;138.23;;;7.70;99.90;;;;;;5045436;28;20029;-84
2024/03/10 00:14:10;;;;;;;171.00;160.50;;;7.60;99.90;;;;;;5046342;28;20040;-84
2024/03/10 00:16:36;;;;;;;161.30;150.85;;;7.60;99.90;;;;;;5051570;28;20032;-84
2024/03/10 00:19:03;;;;;;;165.80;155.25;;;7.60;99.90;;;;;;5051330;28;20028;-85
2024/03/10 00:21:30;;;;;;;163.57;153.63;;;7.60;99.90;;;;;;5051499;28;20056;-84
2024/03/10 00:23:56;;;;;;;172.20;161.38;;;7.60;99.90;;;;;;5040697;28;20680;-84
2024/03/10 00:26:22;;;;;;;172.73;161.82;;;7.60;99.90;;;;;;5041481;28;20024;-84
2024/03/10 00:28:49;;;;;;;162.30;152.30;;;7.50;99.90;;;;;;5050481;28;20048;-84
2024/03/10 00:31:15;;;;;;;166.70;155.93;;;7.50;99.90;;;;;;5038484;28;20041;-84
2024/03/10 00:33:42;;;;;;;167.63;156.88;;;7.50;99.90;;;;;;5040258;28;20130;-84
2024/03/10 00:36:08;;;;;;;150.80;141.43;;;7.50;99.90;;;;;;5030967;28;20049;-84
2024/03/10 00:38:34;;;;;;;171.95;160.90;;;7.40;99.90;;;;;;5031209;28;20394;-84
2024/03/10 00:41:00;;;;;;;167.00;156.68;;;7.40;99.90;;;;;;5038620;28;20037;-84
2024/03/10 00:43:28;;;;;;;162.25;152.52;;;7.40;99.90;;;;;;5044926;28;20046;-84
2024/03/10 00:45:54;;;;;;;161.82;151.93;;;7.40;99.90;;;;;;5037840;28;20048;-84
2024/03/10 00:48:21;;;;;;;162.85;152.88;;;7.40;99.90;;;;;;5052207;28;20033;-84
2024/03/10 00:50:47;;;;;;;180.18;169.38;;;7.40;99.90;;;;;;5049229;28;20372;-84
2024/03/10 00:53:14;;;;;;;175.32;159.63;;;7.40;99.90;;;;;;5043375;28;20040;-83
2024/03/10 00:55:42;;;;;;;181.90;163.88;;;7.40;99.90;;;;;;5034980;28;20029;-84
2024/03/10 00:58:10;;;;;;;209.82;187.32;;;7.30;99.90;;;;;;5051928;28;20380;-84
2024/03/10 01:00:37;;;;;;;167.50;154.40;;;7.20;99.90;;;;;;5039863;28;20033;-85
2024/03/10 01:03:06;;;;;;;170.85;159.95;;;7.20;99.90;;;;;;5051510;28;20055;-84
2024/03/10 01:05:33;;;;;;;177.80;162.10;;;7.20;99.90;;;;;;5047823;28;20434;-84
2024/03/10 01:08:02;;;;;;;184.50;169.70;;;7.20;99.90;;;;;;5044648;28;20049;-84
2024/03/10 01:10:28;;;;;;;191.00;179.07;;;7.10;99.90;;;;;;5043723;28;20036;-83
2024/03/10 01:12:55;;;;;;;192.63;180.93;;;7.10;99.90;;;;;;5040668;28;20036;-84
2024/03/10 01:15:24;;;;;;;192.65;180.77;;;7.10;99.90;;;;;;5050942;28;20037;-84
2024/03/10 01:17:50;;;;;;;184.50;172.95;;;7.00;99.90;;;;;;5038916;28;20518;-84
2024/03/10 01:20:17;;;;;;;174.80;164.05;;;7.00;99.90;;;;;;5036468;28;20033;-84
2024/03/10 01:22:44;;;;;;;167.50;157.00;;;7.00;99.90;;;;;;5039600;28;20033;-84
2024/03/10 01:25:10;;;;;;;164.20;154.07;;;7.00;99.90;;;;;;5031875;28;20053;-84
2024/03/10 01:27:36;;;;;;;160.20;150.57;;;7.00;99.90;;;;;;5051381;28;20029;-84
2024/03/10 01:30:03;;;;;;;144.18;135.25;;;6.90;99.90;;;;;;5044346;28;20504;-83
2024/03/10 01:32:30;;;;;;;147.73;138.77;;;6.90;99.90;;;;;;5054004;28;20526;-84
2024/03/10 01:34:56;;;;;;;149.33;140.53;;;6.90;99.90;;;;;;5055001;28;20036;-84
2024/03/10 01:37:22;;;;;;;139.20;130.73;;;7.00;99.90;;;;;;5053311;28;20044;-84
2024/03/10 01:39:48;;;;;;;140.70;132.10;;;7.00;99.90;;;;;;5048038;28;20033;-83
2024/03/10 01:42:14;;;;;;;142.77;134.05;;;7.00;99.90;;;;;;5052092;28;20036;-83
2024/03/10 01:44:41;;;;;;;145.40;136.38;;;7.00;99.90;;;;;;5055270;28;20044;-84
2024/03/10 01:47:08;;;;;;;140.15;131.30;;;7.00;99.90;;;;;;5052735;28;20037;-84
2024/03/10 01:49:34;;;;;;;119.55;112.25;;;7.00;99.90;;;;;;5046021;28;20391;-84
2024/03/10 01:52:02;;;;;;;118.63;110.72;;;7.00;99.90;;;;;;5054189;28;20072;-84
2024/03/10 01:54:32;;;;;;;130.55;122.72;;;7.00;99.90;;;;;;5054225;28;20112;-84
2024/03/10 01:56:58;;;;;;;117.15;109.65;;;7.00;99.90;;;;;;5053190;28;20036;-84
2024/03/10 01:59:25;;;;;;;157.88;147.98;;;6.90;99.90;;;;;;5036407;28;20029;-84
2024/03/10 02:01:53;;;;;;;144.32;135.38;;;6.90;99.90;;;;;;5047687;28;20044;-84
2024/03/10 02:04:20;;;;;;;128.73;120.60;;;6.40;99.90;;;;;;5038728;28;20053;-84
2024/03/10 02:06:46;;;;;;;130.20;120.78;;;6.30;99.90;;;;;;5042451;28;20044;-73
2024/03/10 02:09:12;;;;;;;137.18;127.10;;;6.20;99.90;;;;;;5038943;28;20044;-73
2024/03/10 02:11:39;;;;;;;125.00;115.25;;;6.40;99.90;;;;;;5042354;28;20064;-73
2024/03/10 02:14:05;;;;;;;125.57;115.23;;;6.60;99.90;;;;;;5034723;28;20384;-74
2024/03/10 02:16:31;;;;;;;112.73;105.10;;;6.70;99.90;;;;;;5034733;28;20037;-73
2024/03/10 02:18:57;;;;;;;134.63;125.47;;;6.80;99.90;;;;;;5047359;28;20391;-73
2024/03/10 02:21:25;;;;;;;131.68;120.78;;;6.70;99.90;;;;;;5053746;28;20400;-73
2024/03/10 02:24:19;;;;;;;167.13;127.07;;;6.80;99.90;;;;;;5052840;28;20049;-73
2024/03/10 02:26:46;;;;;;;144.00;129.32;;;6.90;99.90;;;;;;5053982;28;20041;-73
2024/03/10 02:29:20;;;;;;;128.63;115.17;;;6.80;99.90;;;;;;5039461;28;20049;-73
2024/03/10 02:48:17;;;;;;;137.65;106.88;;;5.90;99.90;;;;;;5050563;28;20388;-76
2024/03/10 02:50:44;;;;;;;138.47;124.30;;;5.90;99.90;;;;;;5037479;28;20480;-75
2024/03/10 02:53:10;;;;;;;113.82;103.15;;;6.00;99.90;;;;;;5052291;28;20498;-75
2024/03/10 02:55:36;;;;;;;97.55;87.63;;;5.90;99.90;;;;;;5053457;28;20041;-75
2024/03/10 02:58:06;;;;;;;110.60;100.20;;;5.80;99.90;;;;;;5048999;28;20041;-75
2024/03/10 03:00:32;;;;;;;101.80;93.20;;;5.80;99.90;;;;;;5035202;28;20056;-75
2024/03/10 03:02:59;;;;;;;118.93;108.10;;;5.70;99.90;;;;;;5047152;28;20044;-73
2024/03/10 03:05:28;;;;;;;104.33;92.13;;;5.60;99.90;;;;;;5039777;28;20044;-75
2024/03/10 03:07:57;;;;;;;103.47;93.43;;;5.50;99.90;;;;;;5040454;28;20029;-75
2024/03/10 03:10:24;;;;;;;136.23;124.97;;;5.40;99.90;;;;;;5047731;28;20045;-86
2024/03/10 03:12:52;;;;;;;101.53;90.80;;;5.30;99.90;;;;;;5052055;28;20024;-86
2024/03/10 03:15:18;;;;;;;91.97;82.50;;;5.30;99.90;;;;;;5039872;28;20026;-86
2024/03/10 03:17:45;;;;;;;70.83;64.63;;;5.50;99.90;;;;;;5049768;28;20089;-86
2024/03/10 03:20:20;;;;;;;98.23;90.10;;;5.60;99.90;;;;;;5043012;28;20021;-87
2024/03/10 03:22:47;;;;;;;106.93;99.53;;;5.70;99.90;;;;;;5039059;28;20033;-87
2024/03/10 03:25:17;;;;;;;93.03;85.57;;;5.60;99.90;;;;;;5041096;28;20100;-86
2024/03/10 03:27:47;;;;;;;105.40;98.03;;;5.40;99.90;;;;;;5033096;28;20056;-84
2024/03/10 03:30:13;;;;;;;87.33;81.07;;;5.30;99.90;;;;;;5034308;28;20284;-84
2024/03/10 03:32:39;;;;;;;81.00;75.50;;;5.30;99.90;;;;;;5038313;28;20503;-84
2024/03/10 03:35:06;;;;;;;104.13;96.43;;;5.30;99.90;;;;;;5042728;28;20029;-85
2024/03/10 03:37:32;;;;;;;88.57;81.50;;;5.40;99.90;;;;;;5047482;28;20044;-85
2024/03/10 03:39:58;;;;;;;77.63;69.70;;;5.30;99.90;;;;;;5051160;28;20048;-84
2024/03/10 03:42:24;;;;;;;77.67;72.07;;;5.30;99.90;;;;;;5045447;28;20076;-85
2024/03/10 03:44:50;;;;;;;73.23;66.00;;;5.40;99.90;;;;;;5033013;28;20037;-84
2024/03/10 03:47:17;;;;;;;69.20;64.03;;;5.40;99.90;;;;;;5032685;28;20041;-84
2024/03/10 03:49:46;;;;;;;115.87;108.50;;;5.50;99.90;;;;;;5033143;28;20025;-84
2024/03/10 03:52:12;;;;;;;79.87;73.13;;;5.40;99.90;;;;;;5049485;28;20048;-84
2024/03/10 03:54:41;;;;;;;58.47;54.70;;;5.20;99.90;;;;;;5045889;28;20562;-84
2024/03/10 03:57:07;;;;;;;61.30;56.27;;;5.20;99.90;;;;;;5052605;28;20395;-85
2024/03/10 03:59:33;;;;;;;72.73;66.93;;;5.30;99.90;;;;;;5052412;28;20033;-86
2024/03/10 04:02:00;;;;;;;82.97;78.07;;;5.30;99.90;;;;;;5049771;28;20025;-84
2024/03/10 04:04:26;;;;;;;82.60;76.80;;;5.20;99.90;;;;;;5034746;28;20053;-84
2024/03/10 04:06:53;;;;;;;69.77;65.10;;;5.30;99.90;;;;;;5033521;28;20037;-84
2024/03/10 04:09:19;;;;;;;61.83;56.25;;;5.20;99.90;;;;;;5037953;28;20040;-83
2024/03/10 04:11:45;;;;;;;61.37;55.53;;;5.20;99.90;;;;;;5039188;28;20144;-84
2024/03/10 04:14:13;;;;;;;60.50;55.77;;;5.30;99.90;;;;;;5030971;28;20034;-85
2024/03/10 04:16:39;;;;;;;68.80;63.97;;;5.40;99.90;;;;;;5051649;28;20041;-84
2024/03/10 04:19:05;;;;;;;101.23;93.97;;;5.40;99.90;;;;;;5039657;28;20025;-85
2024/03/10 04:21:33;;;;;;;99.07;92.47;;;5.30;99.90;;;;;;5043556;28;20399;-75
2024/03/10 04:23:59;;;;;;;96.37;70.97;;;5.20;99.90;;;;;;5052053;28;20060;-75
2024/03/10 04:26:27;;;;;;;71.93;65.93;;;5.20;99.90;;;;;;5042866;28;20388;-75
2024/03/10 04:28:54;;;;;;;72.47;65.33;;;5.30;99.90;;;;;;5051964;28;20045;-75
2024/03/10 04:31:20;;;;;;;78.37;55.77;;;5.30;99.90;;;;;;5046332;28;20040;-75
2024/03/10 04:33:51;;;;;;;78.37;63.63;;;5.30;99.90;;;;;;5052440;28;20534;-73
2024/03/10 04:36:19;;;;;;;82.82;75.32;;;5.50;99.90;;;;;;5035053;28;20033;-75
2024/03/10 04:38:45;;;;;;;102.93;94.80;;;5.70;99.90;;;;;;5037630;28;20164;-75
2024/03/10 04:41:11;;;;;;;123.93;110.90;;;5.70;99.90;;;;;;5049680;28;20036;-75
2024/03/10 04:43:38;;;;;;;86.40;71.73;;;5.50;99.90;;;;;;5036980;28;20049;-75
2024/03/10 04:46:05;;;;;;;95.18;72.15;;;5.40;99.90;;;;;;5039226;28;20049;-75
2024/03/10 04:48:35;;;;;;;75.63;62.97;;;5.40;99.90;;;;;;5051004;28;20040;-75
2024/03/10 04:51:01;;;;;;;113.63;72.27;;;5.50;99.90;;;;;;5047972;28;20076;-75
2024/03/10 04:53:27;;;;;;;85.63;75.07;;;5.50;99.90;;;;;;5038823;28;20415;-76
2024/03/10 04:55:54;;;;;;;117.70;64.47;;;5.50;99.90;;;;;;5044846;28;20037;-75
2024/03/10 04:58:22;;;;;;;103.97;65.70;;;5.50;99.90;;;;;;5032187;28;20045;-75
2024/03/10 05:00:48;;;;;;;110.47;60.47;;;5.50;99.90;;;;;;5044119;28;20040;-75
2024/03/10 05:03:15;;;;;;;155.03;60.27;;;5.50;99.90;;;;;;5049948;28;20037;-75
2024/03/10 05:05:41;;;;;;;74.37;66.23;;;5.60;99.90;;;;;;5048666;28;20041;-75
2024/03/10 05:08:08;;;;;;;103.83;85.77;;;5.80;99.90;;;;;;5052877;28;20032;-75
2024/03/10 05:10:34;;;;;;;92.53;73.47;;;5.80;99.90;;;;;;5047468;28;20056;-75
2024/03/10 05:13:01;;;;;;;84.40;71.53;;;5.60;99.90;;;;;;5036191;28;20041;-75
2024/03/10 05:15:27;;;;;;;122.53;69.80;;;5.40;99.90;;;;;;5038786;28;20045;-75
2024/03/10 05:17:53;;;;;;;100.70;85.93;;;5.40;99.90;;;;;;5055971;28;20492;-74
2024/03/10 05:20:21;;;;;;;235.40;79.03;;;5.30;99.90;;;;;;5055821;28;20029;-75
2024/03/10 05:22:47;;;;;;;147.97;61.87;;;5.20;99.90;;;;;;5055807;28;20032;-75
2024/03/10 05:25:13;;;;;;;179.80;75.53;;;5.20;99.90;;;;;;5047845;28;20045;-86
2024/03/10 05:27:41;;;;;;;170.23;70.47;;;5.20;99.90;;;;;;5054657;28;20029;-87
2024/03/10 05:30:10;;;;;;;228.13;86.40;;;5.20;99.90;;;;;;5054843;28;20049;-86
2024/03/10 05:32:36;;;;;;;311.33;79.33;;;5.30;99.90;;;;;;5042446;28;20036;-84
2024/03/10 05:35:05;;;;;;;329.53;98.33;;;5.20;99.90;;;;;;5036876;28;20055;-84
2024/03/10 05:37:34;;;;;;;151.80;103.87;;;5.20;99.90;;;;;;5033949;28;20041;-84
2024/03/10 05:40:01;;;;;;;319.70;85.83;;;5.00;99.90;;;;;;5035926;28;20029;-85
2024/03/10 05:42:27;;;;;;;119.97;90.17;;;5.00;99.90;;;;;;5046363;28;20018;-85
2024/03/10 05:44:53;;;;;;;266.33;86.23;;;5.00;99.90;;;;;;5035754;28;20052;-87
2024/03/10 05:47:19;;;;;;;174.43;92.80;;;5.10;99.90;;;;;;5053007;28;20399;-84
2024/03/10 05:49:47;;;;;;;133.60;108.70;;;5.20;99.90;;;;;;5055253;28;20028;-84
2024/03/10 05:52:13;;;;;;;202.60;70.03;;;5.20;99.90;;;;;;5036165;28;20042;-85
2024/03/10 05:54:39;;;;;;;115.20;107.37;;;5.20;99.90;;;;;;5032920;28;20404;-85
2024/03/10 05:57:05;;;;;;;115.43;79.03;;;5.20;99.90;;;;;;5051132;28;20029;-85
2024/03/10 05:59:31;;;;;;;107.07;92.87;;;5.20;99.90;;;;;;5055167;28;20025;-85
2024/03/10 06:01:58;;;;;;;106.57;95.20;;;5.20;99.90;;;;;;5054309;28;20036;-84
2024/03/10 06:04:24;;;;;;;107.40;84.70;;;5.20;99.90;;;;;;5054677;28;20049;-85
2024/03/10 06:06:51;;;;;;;152.77;77.43;;;5.10;99.90;;;;;;5037250;28;20029;-85
2024/03/10 06:09:18;;;;;;;87.73;78.53;;;5.20;99.90;;;;;;5039138;28;20037;-85
2024/03/10 06:11:44;;;;;;;186.10;93.37;;;5.30;99.90;;;;;;5054897;28;20037;-86
2024/03/10 06:14:11;;;;;;;140.17;102.23;;;5.30;99.90;;;;;;5054775;28;20029;-85
2024/03/10 06:16:37;;;;;;;221.67;98.40;;;5.20;99.90;;;;;;5053435;28;20033;-85
2024/03/10 06:27:00;;;;;;;164.67;83.53;;;5.30;99.90;;;;;;5048120;28;20040;-85
2024/03/10 06:29:26;;;;;;;331.10;125.63;;;5.30;99.90;;;;;;5053595;28;20049;-85
2024/03/10 06:31:55;;;;;;;138.07;109.03;;;5.30;99.90;;;;;;5045500;28;20056;-85
2024/03/10 06:34:22;;;;;;;114.83;107.23;;;5.30;99.90;;;;;;5034074;28;20046;-84
2024/03/10 06:36:48;;;;;;;146.20;96.13;;;5.40;99.90;;;;;;5033842;28;20038;-85
2024/03/10 06:39:19;;;;;;;193.33;115.47;;;5.30;99.90;;;;;;5033830;28;20056;-85
2024/03/10 06:41:46;;;;;;;138.68;95.93;;;5.30;99.90;;;;;;5032620;28;20050;-85
2024/03/10 06:44:15;;;;;;;128.33;88.63;;;5.40;99.90;;;;;;5034060;28;20471;-85
2024/03/10 06:46:44;;;;;;;115.40;104.97;;;5.40;99.90;;;;;;5046480;28;20044;-85
2024/03/10 06:49:10;;;;;;;166.30;92.77;;;5.40;99.90;;;;;;5054395;28;20025;-85
2024/03/10 06:51:36;;;;;;;123.10;91.13;;;5.40;99.90;;;;;;5053427;28;20036;-84
2024/03/10 06:54:03;;;;;;;118.87;108.33;;;5.60;99.90;;;;;;5054181;28;20029;-85
2024/03/10 06:56:30;;;;;;;125.07;96.67;;;5.70;99.90;;;;;;5042142;28;20522;-85
2024/03/10 06:58:56;;;;;;;119.37;106.97;;;5.60;99.90;;;;;;5033917;28;20048;-85
2024/03/10 07:01:22;;;;;;;97.10;87.53;;;5.70;99.90;;;;;;5033222;28;20045;-85
2024/03/10 07:03:48;;;;;;;92.63;84.43;;;5.60;99.90;;;;;;5033830;28;20514;-85
2024/03/10 07:06:21;;;;;;;121.83;98.10;;;5.60;99.90;;;;;;5041576;28;20048;-84
2024/03/10 07:08:48;;;;;;;168.53;100.73;;;5.70;99.90;;;;;;5052068;28;20025;-85
2024/03/10 07:11:14;;;;;;;157.57;145.63;;;5.70;99.90;;;;;;5048032;28;20048;-83
2024/03/10 07:13:40;;;;;;;191.80;103.53;;;5.70;99.90;;;;;;5033945;28;20464;-86
2024/03/10 07:16:06;;;;;;;152.53;113.33;;;5.80;99.90;;;;;;5014579;28;20045;-85
2024/03/10 07:18:33;;;;;;;100.07;91.80;;;5.90;99.90;;;;;;5034653;28;20100;-85
2024/03/10 07:20:59;;;;;;;149.02;134.48;;;5.90;99.90;;;;;;5039628;28;20036;-84
2024/03/10 07:23:25;;;;;;;122.28;112.82;;;5.90;99.90;;;;;;5053467;28;20029;-85
2024/03/10 07:25:51;;;;;;;162.47;142.13;;;5.90;99.90;;;;;;5050050;28;20044;-85
2024/03/10 07:28:17;;;;;;;105.28;96.30;;;5.80;99.90;;;;;;5042188;28;20025;-84
2024/03/10 07:30:43;;;;;;;106.57;97.10;;;5.90;99.90;;;;;;5046919;28;20032;-84
2024/03/10 07:33:09;;;;;;;185.68;103.55;;;5.90;99.90;;;;;;5033388;28;20029;-84
2024/03/10 07:35:35;;;;;;;126.57;116.93;;;5.90;99.90;;;;;;5032588;28;20244;-84
2024/03/10 07:38:01;;;;;;;149.57;113.03;;;5.90;99.90;;;;;;5041593;28;20029;-84
2024/03/10 07:40:27;;;;;;;136.13;114.10;;;6.00;99.90;;;;;;5049477;28;20391;-83
2024/03/10 07:42:54;;;;;;;204.52;115.00;;;6.00;99.90;;;;;;5038352;28;20057;-84
2024/03/10 07:45:20;;;;;;;117.43;108.20;;;6.00;99.90;;;;;;5033402;28;20037;-83
2024/03/10 07:47:47;;;;;;;129.93;119.07;;;6.00;99.90;;;;;;5046268;28;20101;-83
2024/03/10 07:50:13;;;;;;;160.80;132.10;;;6.00;99.90;;;;;;5032594;28;20036;-84
2024/03/10 07:52:40;;;;;;;194.13;112.47;;;6.00;99.90;;;;;;5032840;28;20495;-85
2024/03/10 07:55:06;;;;;;;151.47;104.57;;;5.90;99.90;;;;;;5033141;28;20029;-85
2024/03/10 07:57:33;;;;;;;118.23;108.27;;;6.10;99.90;;;;;;5039794;28;20041;-85
2024/03/10 08:00:00;;;;;;;137.18;115.30;;;6.00;99.90;;;;;;5035253;28;20042;-85
2024/03/10 08:02:26;;;;;;;162.70;149.50;;;5.90;99.90;;;;;;5033298;28;20073;-74
2024/03/10 08:04:53;;;;;;;102.20;85.57;;;5.90;99.90;;;;;;5032016;28;20050;-73
2024/03/10 08:07:19;;;;;;;119.23;107.10;;;5.80;99.90;;;;;;5039193;28;20602;-73
2024/03/10 08:09:45;;;;;;;111.03;100.53;;;5.90;99.90;;;;;;5039863;28;20020;-74
2024/03/10 08:12:11;;;;;;;107.45;100.35;;;5.90;99.90;;;;;;5036073;28;20388;-73
2024/03/10 08:14:41;;;;;;;103.37;94.87;;;5.90;99.90;;;;;;5038871;28;20032;-72
2024/03/10 08:17:07;;;;;;;137.20;127.37;;;5.90;99.90;;;;;;5047994;28;20522;-73
2024/03/10 08:19:33;;;;;;;114.73;106.10;;;5.90;99.90;;;;;;5052172;28;20028;-73
2024/03/10 08:21:59;;;;;;;104.23;97.07;;;5.80;99.90;;;;;;5051532;28;20037;-73
2024/03/10 08:24:28;;;;;;;116.03;107.73;;;5.90;99.90;;;;;;5052139;28;20407;-73
2024/03/10 08:26:54;;;;;;;136.70;125.17;;;5.90;99.90;;;;;;5042378;28;20037;-73
2024/03/10 08:29:20;;;;;;;122.80;114.63;;;6.00;99.90;;;;;;5032226;28;20495;-73
2024/03/10 08:31:46;;;;;;;143.20;134.35;;;6.10;99.90;;;;;;5036711;28;20041;-73
2024/03/10 08:34:12;;;;;;;123.53;109.30;;;6.00;99.90;;;;;;5031912;28;20053;-73
2024/03/10 08:36:39;;;;;;;146.10;134.45;;;6.00;99.90;;;;;;5039013;28;20036;-75
2024/03/10 08:39:09;;;;;;;119.90;106.90;;;6.10;99.90;;;;;;5032385;28;20498;-73
2024/03/10 08:41:35;;;;;;;140.40;131.30;;;6.20;99.90;;;;;;5043340;28;20040;-73
2024/03/10 08:44:03;;;;;;;154.93;144.77;;;6.20;99.90;;;;;;5052073;28;20052;-72
2024/03/10 08:46:30;;;;;;;143.63;129.50;;;6.20;99.90;;;;;;5042991;28;20044;-72
2024/03/10 08:48:56;;;;;;;129.32;111.88;;;6.20;99.90;;;;;;5051873;28;20041;-72
2024/03/10 08:51:23;;;;;;;99.85;90.97;;;6.30;99.90;;;;;;5051831;28;20766;-72
2024/03/10 08:53:49;;;;;;;112.00;103.47;;;6.30;99.90;;;;;;5050667;28;20044;-73
2024/03/10 08:56:15;;;;;;;109.68;101.30;;;6.30;99.90;;;;;;5044087;28;20045;-73
2024/03/10 08:58:42;;;;;;;121.40;112.82;;;6.40;99.90;;;;;;5041124;28;20037;-73
2024/03/10 09:01:09;;;;;;;135.18;122.03;;;6.40;99.90;;;;;;5040840;28;20044;-73
2024/03/10 09:03:35;;;;;;;119.40;111.28;;;6.50;99.90;;;;;;5051847;28;20388;-88
2024/03/10 09:06:02;;;;;;;106.75;97.47;;;6.60;99.90;;;;;;5047506;28;20040;-87
2024/03/10 09:08:28;;;;;;;134.00;125.00;;;6.70;99.90;;;;;;5042793;28;20033;-87
2024/03/10 09:10:55;;;;;;;131.55;122.50;;;6.70;99.90;;;;;;5043726;28;20037;-76
2024/03/10 09:13:21;;;;;;;135.48;126.63;;;6.60;99.90;;;;;;5031277;28;20048;-76
2024/03/10 09:15:47;;;;;;;149.73;138.35;;;6.60;99.90;;;;;;5034587;28;20590;-76
2024/03/10 09:18:13;;;;;;;134.15;125.57;;;6.60;99.90;;;;;;5051447;28;20033;-76
2024/03/10 09:20:40;;;;;;;124.00;116.45;;;6.70;99.90;;;;;;5051614;28;20029;-77
2024/03/10 09:23:06;;;;;;;128.63;121.18;;;6.80;99.90;;;;;;5041354;28;20045;-76
2024/03/10 09:25:34;;;;;;;132.38;123.97;;;7.00;99.90;;;;;;5042187;28;20197;-76
2024/03/10 09:28:00;;;;;;;124.38;117.32;;;6.90;99.90;;;;;;5040874;28;20045;-77
2024/03/10 09:30:30;;;;;;;146.02;137.13;;;6.90;99.90;;;;;;5036894;28;20029;-70
2024/03/10 09:32:56;;;;;;;126.40;119.10;;;6.90;99.90;;;;;;5035652;28;20049;-76
2024/03/10 09:35:28;;;;;;;122.60;114.90;;;7.20;99.90;;;;;;5037042;28;20454;-76
2024/03/10 09:38:06;;;;;;;105.85;98.82;;;7.20;99.90;;;;;;5039586;28;20046;-75
2024/03/10 09:40:32;;;;;;;155.88;146.48;;;7.40;99.90;;;;;;5042621;28;20017;-76
2024/03/10 09:43:02;;;;;;;129.88;122.43;;;7.40;99.90;;;;;;5047739;28;20507;-76
2024/03/10 09:45:29;;;;;;;127.18;117.15;;;7.30;99.90;;;;;;5047670;28;20414;-76
2024/03/10 09:47:55;;;;;;;137.75;129.57;;;7.30;99.90;;;;;;5045603;28;20117;-76
2024/03/10 09:50:24;;;;;;;128.25;120.82;;;7.30;99.90;;;;;;5033452;28;20411;-76
2024/03/10 09:52:54;;;;;;;122.47;115.40;;;7.20;99.90;;;;;;5053343;28;20041;-76
2024/03/10 09:55:20;;;;;;;116.85;110.05;;;7.20;99.90;;;;;;5053065;28;20068;-76
2024/03/10 09:57:53;;;;;;;118.60;111.70;;;7.30;99.90;;;;;;5051611;28;20048;-76
2024/03/10 10:00:25;;;;;;;149.98;141.20;;;7.20;99.90;;;;;;5053293;28;20044;-76
2024/03/10 10:03:03;;;;;;;134.18;126.10;;;7.10;99.90;;;;;;5053351;28;20033;-76
2024/03/10 10:05:29;;;;;;;109.97;103.32;;;7.10;99.90;;;;;;5035875;28;20037;-75
2024/03/10 10:08:10;;;;;;;165.70;156.25;;;7.30;99.90;;;;;;5054189;28;20044;-76
2024/03/10 10:10:37;;;;;;;93.38;87.95;;;7.40;99.90;;;;;;5049144;28;20041;-76
2024/03/10 10:13:03;;;;;;;153.82;143.93;;;7.40;99.90;;;;;;5052475;28;20025;-76
2024/03/10 10:15:33;;;;;;;125.03;116.85;;;7.40;99.90;;;;;;5049651;28;20037;-76
2024/03/10 10:18:00;;;;;;;120.32;113.18;;;7.40;99.90;;;;;;5042642;28;20383;-76
2024/03/10 10:20:26;;;;;;;86.38;80.47;;;7.40;99.90;;;;;;5053506;28;20043;-76
2024/03/10 10:22:53;;;;;;;185.57;174.10;;;7.30;99.90;;;;;;5052977;28;20037;-76
2024/03/10 10:25:19;;;;;;;101.78;95.63;;;7.30;99.90;;;;;;5051696;28;20025;-76
2024/03/10 10:27:49;;;;;;;117.20;109.82;;;7.40;99.90;;;;;;5045480;28;20479;-76
2024/03/10 10:30:17;;;;;;;149.88;140.68;;;7.40;99.90;;;;;;5046228;28;20388;-76
2024/03/10 10:32:43;;;;;;;119.43;112.43;;;7.60;99.90;;;;;;5053385;28;20040;-77
2024/03/10 10:35:09;;;;;;;156.73;147.63;;;7.60;99.90;;;;;;5052636;28;20040;-76
2024/03/10 10:37:35;;;;;;;140.43;132.00;;;7.60;99.90;;;;;;5035326;28;20025;-77
2024/03/10 10:40:11;;;;;;;102.70;96.47;;;7.60;99.90;;;;;;5034589;28;20045;-77
2024/03/10 10:42:38;;;;;;;102.55;96.25;;;7.60;99.90;;;;;;5038367;28;20033;-76
2024/03/10 10:45:07;;;;;;;147.88;138.65;;;7.70;99.90;;;;;;5036120;28;20037;-76
2024/03/10 10:47:34;;;;;;;141.23;132.80;;;8.00;99.90;;;;;;5036337;28;20047;-77
2024/03/10 10:50:00;;;;;;;179.98;169.57;;;8.10;99.90;;;;;;5054088;28;20041;-76
2024/03/10 10:52:26;;;;;;;184.75;173.38;;;7.90;99.90;;;;;;5052684;28;20029;-76
2024/03/10 10:54:52;;;;;;;214.13;200.98;;;7.80;99.90;;;;;;5054050;28;20033;-77
2024/03/10 10:57:18;;;;;;;234.10;220.50;;;7.70;99.90;;;;;;5053716;28;20036;-77
2024/03/10 10:59:52;;;;;;;195.45;184.00;;;7.70;99.90;;;;;;5034685;28;20041;-76
2024/03/10 11:02:23;;;;;;;166.07;156.32;;;7.80;99.90;;;;;;5047844;28;20036;-77
2024/03/10 11:04:53;;;;;;;181.00;170.38;;;7.80;99.90;;;;;;5033863;28;20060;-77
2024/03/10 11:07:19;;;;;;;177.60;166.73;;;7.80;99.90;;;;;;5041036;28;20041;-77
2024/03/10 11:09:45;;;;;;;143.77;135.18;;;7.90;99.90;;;;;;5040649;28;20033;-77
2024/03/10 11:12:21;;;;;;;101.38;95.57;;;8.20;99.90;;;;;;5052119;28;20052;-77
2024/03/10 11:14:48;;;;;;;164.20;154.48;;;8.30;99.90;;;;;;5042465;28;20072;-77
2024/03/10 11:17:18;;;;;;;190.15;178.60;;;8.30;99.90;;;;;;5050737;28;20029;-76
2024/03/10 11:19:49;;;;;;;177.23;166.70;;;8.30;99.90;;;;;;5051839;28;20032;-77
2024/03/10 11:22:25;;;;;;;140.70;132.60;;;8.20;99.90;;;;;;5052382;28;20044;-77
2024/03/10 11:25:11;;;;;;;148.57;140.27;;;8.20;99.90;;;;;;5051573;28;20099;-77
2024/03/10 11:27:44;;;;;;;158.15;149.18;;;8.10;99.90;;;;;;5036633;28;20407;-77
2024/03/10 11:30:35;;;;;;;171.05;161.20;;;8.20;99.90;;;;;;5031759;28;20044;-77
2024/03/10 11:33:06;;;;;;;166.77;157.13;;;8.30;99.90;;;;;;5038133;28;20033;-77
2024/03/10 11:35:33;;;;;;;157.25;148.18;;;8.40;99.90;;;;;;5052221;28;20385;-76
2024/03/10 11:37:59;;;;;;;191.35;180.60;;;8.30;99.90;;;;;;5038735;28;20045;-76
2024/03/10 11:40:30;;;;;;;162.75;153.55;;;8.30;99.90;;;;;;5046892;28;20395;-76
2024/03/10 11:42:58;;;;;;;182.82;172.15;;;8.30;99.90;;;;;;5035987;28;20053;-76
2024/03/10 11:45:25;;;;;;;199.40;187.75;;;8.40;99.90;;;;;;5051163;28;20399;-76
2024/03/10 11:47:51;;;;;;;213.07;200.52;;;8.40;99.90;;;;;;5032145;28;20036;-76
2024/03/10 11:50:18;;;;;;;221.32;207.95;;;8.50;99.90;;;;;;5031842;28;20041;-77
2024/03/10 11:52:45;;;;;;;186.55;175.82;;;8.70;99.90;;;;;;5052706;28;20381;-76
2024/03/10 11:55:14;;;;;;;163.75;154.55;;;9.00;99.90;;;;;;5051655;28;20036;-76
2024/03/10 11:57:40;;;;;;;170.00;160.90;;;9.30;99.90;;;;;;5030905;28;20030;-76
2024/03/10 12:00:09;;;;;;;190.25;179.18;;;9.50;99.90;;;;;;5030281;28;20052;-76
2024/03/10 12:02:37;;;;;;;159.95;150.55;;;9.20;99.90;;;;;;5049689;28;20052;-76
2024/03/10 12:05:05;;;;;;;215.52;203.13;;;9.10;99.90;;;;;;5050924;28;20043;-76
2024/03/10 12:07:33;;;;;;;239.85;226.00;;;9.10;99.90;;;;;;5045751;28;20147;-76
2024/03/10 12:09:59;;;;;;;185.25;175.00;;;9.30;99.90;;;;;;5038744;28;20396;-76
2024/03/10 12:12:35;;;;;;;178.10;168.43;;;9.40;99.90;;;;;;5049039;28;20025;-76
2024/03/10 12:15:01;;;;;;;129.30;122.45;;;9.50;99.90;;;;;;5051461;28;20033;-76
2024/03/10 12:17:28;;;;;;;241.77;228.73;;;9.60;99.90;;;;;;5050240;28;20048;-76
2024/03/10 12:19:54;;;;;;;205.55;194.45;;;9.70;99.90;;;;;;5047709;28;20060;-75
2024/03/10 12:22:20;;;;;;;247.85;233.85;;;9.70;99.90;;;;;;5029313;28;20048;-77
2024/03/10 12:24:46;;;;;;;220.80;208.60;;;9.80;99.90;;;;;;5052417;28;20029;-76
2024/03/10 12:27:13;;;;;;;308.80;289.52;;;9.90;99.90;;;;;;5039985;28;20040;-76
2024/03/10 12:29:45;;;;;;;242.70;227.80;;;9.90;99.90;;;;;;5051031;28;20028;-76
2024/03/10 12:32:15;;;;;;;250.82;235.63;;;10.00;99.90;;;;;;5047858;28;20395;-76
2024/03/10 12:34:41;;;;;;;243.88;230.13;;;10.00;99.90;;;;;;5050800;28;20044;-76
2024/03/10 12:37:07;;;;;;;292.58;275.20;;;10.10;99.90;;;;;;5051101;28;20415;-76
2024/03/10 12:39:33;;;;;;;209.35;198.43;;;10.20;99.90;;;;;;5046717;28;20040;-73
2024/03/10 12:42:00;;;;;;;199.73;189.32;;;10.30;99.90;;;;;;5046248;28;20410;-76
2024/03/10 12:44:26;;;;;;;717.45;455.35;;;10.30;99.90;;;;;;5051363;28;20111;-76
2024/03/10 12:46:52;;;;;;;705.17;443.58;;;10.40;99.90;;;;;;5050534;28;20037;-76